Viking, Canada
Current Conditions -  °F | °C
As of 11:00 AM on Friday 19 Dec 2014 (Local Time) from CYLL Reporting Station
Broken Clouds Broken Clouds  
Wind Chill:   Ceiling: 25000
Heat Index: 10°   Visibility: 8mi
Dew Point:   Wind: 7mph
Humidity: 92%   Direction: 120°ESE
Pressure: 29.83"   Gusts: NA
Location:  53.08°N, 111.78°W
Report Text: CYLL 191800Z 12006KT 8SM FEW002 BKN250 M12/M13 A2983 RMK ST1CI4 SLP151
Loading
Personal Weather Stations






























Interactive Weather Map New forecast layout! Learn more

10-Day Weather Forecast

Advertisements
Track Severe Weather on mobile